»·PEaware :: N4306H KLAX-KSNA

N4306H :: KLAX-KSNA

FLIGHT INFORMATION

Flight Status: Arrived
Operator: Privately registered:
United States
More flights under this callsign
Pilot: Lauro R. (32390)
Aircraft: MOONEY M-20 201 202 205 220 ATS MSE
(M20P)
More flights by this aircraft type
Origin: KLAX Los Angeles Intl
United States
Destination: KSNA John Wayne-Orange Co
United States
More flights between these airports :: More routes between these airports
Route: SLI8 SLI
File this flight plan on PilotEdge
Remarks: TEC ROUTE LAXP55
Altitude:
(Current/Filed)
4,000ft
Speed:
(Current/Filed)
150kts
Departed: 14-Nov-20 02:19 PM
Arrived: 14-Nov-20 02:58 PM
Distance/Time
Traveled:
31nm/0:39
Distance/Time
To Go:
Arrived

Flight Plot

Page will automatically refresh every two minutes.

Flight plan parsing failed; only flown route is shown


Map Options




Map Legend


Flown Route
Filed Route
Departure Airport
Arrival Airport
Navaid (VOR, NDB)
Fix

Horizontal Profiles

Position Reports

Time Latitude Longitude Heading Altitude Ground
Speed
14-Nov-20 14:00 33.932657 -118.399145 83 110ft 0kts
14-Nov-20 14:01 33.932657 -118.399145 83 110ft 0kts
14-Nov-20 14:02 33.932657 -118.399145 83 110ft 0kts
14-Nov-20 14:03 33.932657 -118.399145 83 110ft 0kts
14-Nov-20 14:04 33.932657 -118.399145 83 110ft 0kts
14-Nov-20 14:05 33.932657 -118.399145 83 110ft 0kts
14-Nov-20 14:06 33.932657 -118.399145 83 110ft 0kts
14-Nov-20 14:07 33.932657 -118.399145 83 110ft 0kts
14-Nov-20 14:08 33.932657 -118.399145 83 110ft 0kts
14-Nov-20 14:09 33.932657 -118.399145 83 110ft 0kts
14-Nov-20 14:10 33.932657 -118.399145 83 110ft 0kts
14-Nov-20 14:11 33.933406 -118.398907 47 109ft 11kts
14-Nov-20 14:12 33.934633 -118.397569 80 107ft 12kts
14-Nov-20 14:12 33.934884 -118.395016 82 104ft 10kts
14-Nov-20 14:14 33.935303 -118.390895 83 101ft 16kts
14-Nov-20 14:14 33.935707 -118.386972 84 98ft 19kts
14-Nov-20 14:16 33.936106 -118.383167 46 95ft 0kts
14-Nov-20 14:17 33.936106 -118.383167 46 95ft 0kts
14-Nov-20 14:17 33.937023 -118.382874 350 94ft 11kts
14-Nov-20 14:19 33.935808 -118.398154 261 134ft 103kts
14-Nov-20 14:19 33.935317 -118.431989 274 630ft 130kts
14-Nov-20 14:21 33.891327 -118.487702 213 1707ft 144kts
14-Nov-20 14:21 33.847510 -118.522171 213 2692ft 135kts
14-Nov-20 14:23 33.784495 -118.571650 213 3859ft 152kts
14-Nov-20 14:23 33.717965 -118.623955 213 3853ft 178kts
14-Nov-20 14:24 33.661463 -118.650043 137 3846ft 180kts
14-Nov-20 14:25 33.665594 -118.593436 71 3859ft 180kts
14-Nov-20 14:26 33.680823 -118.535577 72 3852ft 181kts
14-Nov-20 14:27 33.696095 -118.477616 72 3853ft 181kts
14-Nov-20 14:28 33.711371 -118.419666 72 3853ft 182kts
14-Nov-20 14:29 33.726673 -118.361665 72 3854ft 181kts
14-Nov-20 14:30 33.741926 -118.303848 72 3853ft 182kts
14-Nov-20 14:31 33.757072 -118.245956 78 3850ft 182kts
14-Nov-20 14:32 33.759578 -118.186352 77 3852ft 181kts
14-Nov-20 14:33 33.770160 -118.127152 78 3853ft 182kts
14-Nov-20 14:34 33.780762 -118.068439 78 3853ft 182kts
14-Nov-20 14:35 33.798768 -118.015982 63 3852ft 182kts
14-Nov-20 14:36 33.819313 -117.965106 64 3853ft 182kts
14-Nov-20 14:37 33.839469 -117.914930 64 3853ft 182kts
14-Nov-20 14:38 33.860911 -117.861516 64 3852ft 182kts
14-Nov-20 14:39 33.883303 -117.805718 63 3847ft 170kts
14-Nov-20 14:40 33.899297 -117.765754 64 3848ft 112kts
14-Nov-20 14:41 33.911854 -117.734329 64 3850ft 97kts
14-Nov-20 14:42 33.927388 -117.708066 29 3684ft 107kts
14-Nov-20 14:43 33.955524 -117.690128 27 3402ft 119kts
14-Nov-20 14:44 33.979774 -117.695334 266 3350ft 107kts
14-Nov-20 14:45 33.956497 -117.708470 186 3351ft 98kts
14-Nov-20 14:46 33.929953 -117.712032 186 3352ft 93kts
14-Nov-20 14:47 33.906034 -117.722414 208 3302ft 95kts
14-Nov-20 14:48 33.882294 -117.737578 208 3252ft 95kts
14-Nov-20 14:49 33.859300 -117.752248 208 3252ft 91kts
14-Nov-20 14:50 33.834673 -117.768004 208 2874ft 123kts
14-Nov-20 14:51 33.803056 -117.788047 207 2443ft 134kts
14-Nov-20 14:52 33.776340 -117.804968 208 2043ft 85kts
14-Nov-20 14:53 33.755539 -117.818180 207 1706ft 92kts
14-Nov-20 14:54 33.732880 -117.832567 207 1225ft 97kts
14-Nov-20 14:55 33.708878 -117.847797 208 692ft 93kts
14-Nov-20 14:56 33.688851 -117.860491 208 255ft 72kts
14-Nov-20 14:57 33.674172 -117.869809 206 59ft 40kts
14-Nov-20 14:58 33.669597 -117.872093 153 59ft 13kts
14-Nov-20 14:59 33.669045 -117.871205 88 59ft 10kts
14-Nov-20 15:00 33.669443 -117.869538 126 59ft 0kts
14-Nov-20 15:01 33.861545 -117.750816 208 3252ft 92kts
14-Nov-20 15:02 33.695912 -117.856015 208 407ft 79kts
14-Nov-20 15:03 33.678724 -117.866896 207 61ft 58kts

Navigation Log

Ident Type
Flight plan parsing failed, navigation log unavailable